sensor_id;sensor_type;location;lat;lon;timestamp;temperature;humidity
44843;DHT22;31884;52.538;13.820;2023-08-21T00:01:07;19.90;99.90
44843;DHT22;31884;52.538;13.820;2023-08-21T00:03:32;19.90;99.90
44843;DHT22;31884;52.538;13.820;2023-08-21T00:05:59;19.80;99.90
44843;DHT22;31884;52.538;13.820;2023-08-21T00:08:24;19.90;99.90
44843;DHT22;31884;52.538;13.820;2023-08-21T00:10:50;19.90;99.90
44843;DHT22;31884;52.538;13.820;2023-08-21T00:13:15;19.90;99.90
44843;DHT22;31884;52.538;13.820;2023-08-21T00:15:41;19.80;99.90
44843;DHT22;31884;52.538;13.820;2023-08-21T00:18:06;19.80;99.90
44843;DHT22;31884;52.538;13.820;2023-08-21T00:20:32;19.80;99.90
44843;DHT22;31884;52.538;13.820;2023-08-21T00:22:57;19.70;99.90
44843;DHT22;31884;52.538;13.820;2023-08-21T00:25:23;19.80;99.90
44843;DHT22;31884;52.538;13.820;2023-08-21T00:27:48;19.70;99.90
44843;DHT22;31884;52.538;13.820;2023-08-21T00:30:14;19.70;99.90
44843;DHT22;31884;52.538;13.820;2023-08-21T00:32:42;19.70;99.90
44843;DHT22;31884;52.538;13.820;2023-08-21T00:35:08;19.70;99.90
44843;DHT22;31884;52.538;13.820;2023-08-21T00:37:33;19.60;99.90
44843;DHT22;31884;52.538;13.820;2023-08-21T00:39:59;19.50;99.90
44843;DHT22;31884;52.538;13.820;2023-08-21T00:42:24;19.60;99.90
44843;DHT22;31884;52.538;13.820;2023-08-21T00:44:50;19.50;99.90
44843;DHT22;31884;52.538;13.820;2023-08-21T00:47:15;19.50;99.90
44843;DHT22;31884;52.538;13.820;2023-08-21T00:49:41;19.40;99.90
44843;DHT22;31884;52.538;13.820;2023-08-21T00:52:08;19.40;99.90
44843;DHT22;31884;52.538;13.820;2023-08-21T00:54:36;19.30;99.90
44843;DHT22;31884;52.538;13.820;2023-08-21T00:57:01;19.30;99.90
44843;DHT22;31884;52.538;13.820;2023-08-21T00:59:28;19.30;99.90
44843;DHT22;31884;52.538;13.820;2023-08-21T01:01:54;19.20;99.90
44843;DHT22;31884;52.538;13.820;2023-08-21T01:04:20;19.20;99.90
44843;DHT22;31884;52.538;13.820;2023-08-21T01:06:47;19.10;99.90
44843;DHT22;31884;52.538;13.820;2023-08-21T01:15:04;19.00;99.90
44843;DHT22;31884;52.538;13.820;2023-08-21T01:17:36;18.90;99.90
44843;DHT22;31884;52.538;13.820;2023-08-21T01:20:03;18.90;99.90
44843;DHT22;31884;52.538;13.820;2023-08-21T01:22:40;18.90;99.90
44843;DHT22;31884;52.538;13.820;2023-08-21T01:25:07;18.90;99.90
44843;DHT22;31884;52.538;13.820;2023-08-21T01:27:33;18.80;99.90
44843;DHT22;31884;52.538;13.820;2023-08-21T01:30:00;18.80;99.90
44843;DHT22;31884;52.538;13.820;2023-08-21T01:35:11;18.80;99.90
44843;DHT22;31884;52.538;13.820;2023-08-21T01:37:37;18.80;99.90
44843;DHT22;31884;52.538;13.820;2023-08-21T01:40:04;18.70;99.90
44843;DHT22;31884;52.538;13.820;2023-08-21T01:42:30;18.70;99.90
44843;DHT22;31884;52.538;13.820;2023-08-21T01:44:55;18.70;99.90
44843;DHT22;31884;52.538;13.820;2023-08-21T01:47:21;18.80;99.90
44843;DHT22;31884;52.538;13.820;2023-08-21T01:49:46;18.80;99.90
44843;DHT22;31884;52.538;13.820;2023-08-21T01:52:11;18.80;99.90
44843;DHT22;31884;52.538;13.820;2023-08-21T01:54:37;18.80;99.90
44843;DHT22;31884;52.538;13.820;2023-08-21T02:00:24;18.80;99.90
44843;DHT22;31884;52.538;13.820;2023-08-21T02:02:50;18.90;99.90
44843;DHT22;31884;52.538;13.820;2023-08-21T02:05:15;18.90;99.90
44843;DHT22;31884;52.538;13.820;2023-08-21T02:07:41;18.90;99.90
44843;DHT22;31884;52.538;13.820;2023-08-21T02:10:07;18.90;99.90
44843;DHT22;31884;52.538;13.820;2023-08-21T02:12:32;18.90;99.90
44843;DHT22;31884;52.538;13.820;2023-08-21T02:14:58;19.00;99.90
44843;DHT22;31884;52.538;13.820;2023-08-21T02:17:26;19.00;99.90
44843;DHT22;31884;52.538;13.820;2023-08-21T02:19:51;19.00;99.90
44843;DHT22;31884;52.538;13.820;2023-08-21T02:22:17;19.10;99.90
44843;DHT22;31884;52.538;13.820;2023-08-21T02:24:42;19.10;99.90
44843;DHT22;31884;52.538;13.820;2023-08-21T02:27:08;19.10;99.90
44843;DHT22;31884;52.538;13.820;2023-08-21T02:29:33;19.20;99.90
44843;DHT22;31884;52.538;13.820;2023-08-21T02:31:59;19.30;99.90
44843;DHT22;31884;52.538;13.820;2023-08-21T02:34:24;19.20;99.90
44843;DHT22;31884;52.538;13.820;2023-08-21T02:36:50;19.30;99.90
44843;DHT22;31884;52.538;13.820;2023-08-21T02:39:15;19.30;99.90
44843;DHT22;31884;52.538;13.820;2023-08-21T02:41:41;19.30;99.90
44843;DHT22;31884;52.538;13.820;2023-08-21T02:44:06;19.30;99.90
44843;DHT22;31884;52.538;13.820;2023-08-21T02:46:32;19.30;99.90
44843;DHT22;31884;52.538;13.820;2023-08-21T02:48:59;19.40;99.90
44843;DHT22;31884;52.538;13.820;2023-08-21T02:51:25;19.40;99.90
44843;DHT22;31884;52.538;13.820;2023-08-21T02:53:50;19.40;99.90
44843;DHT22;31884;52.538;13.820;2023-08-21T02:56:16;19.40;99.90
44843;DHT22;31884;52.538;13.820;2023-08-21T02:58:41;19.50;99.90
44843;DHT22;31884;52.538;13.820;2023-08-21T03:01:06;19.50;99.90
44843;DHT22;31884;52.538;13.820;2023-08-21T03:03:32;19.60;99.90
44843;DHT22;31884;52.538;13.820;2023-08-21T03:05:59;19.60;99.90
44843;DHT22;31884;52.538;13.820;2023-08-21T03:08:24;19.60;99.90
44843;DHT22;31884;52.538;13.820;2023-08-21T03:10:50;19.60;99.90
44843;DHT22;31884;52.538;13.820;2023-08-21T03:13:15;19.60;99.90
44843;DHT22;31884;52.538;13.820;2023-08-21T03:15:41;19.60;99.90
44843;DHT22;31884;52.538;13.820;2023-08-21T03:18:06;19.70;99.90
44843;DHT22;31884;52.538;13.820;2023-08-21T03:20:32;19.70;99.90
44843;DHT22;31884;52.538;13.820;2023-08-21T03:22:57;19.60;99.90
44843;DHT22;31884;52.538;13.820;2023-08-21T03:25:23;19.70;99.90
44843;DHT22;31884;52.538;13.820;2023-08-21T03:27:48;19.70;99.90
44843;DHT22;31884;52.538;13.820;2023-08-21T03:30:15;19.70;99.90
44843;DHT22;31884;52.538;13.820;2023-08-21T03:32:41;19.70;99.90
44843;DHT22;31884;52.538;13.820;2023-08-21T03:35:07;19.70;99.90
44843;DHT22;31884;52.538;13.820;2023-08-21T03:37:32;19.70;99.90
44843;DHT22;31884;52.538;13.820;2023-08-21T03:39:58;19.70;99.90
44843;DHT22;31884;52.538;13.820;2023-08-21T03:42:23;19.70;99.90
44843;DHT22;31884;52.538;13.820;2023-08-21T03:44:48;19.70;99.90
44843;DHT22;31884;52.538;13.820;2023-08-21T03:47:16;19.80;99.90
44843;DHT22;31884;52.538;13.820;2023-08-21T03:49:41;19.80;99.90
44843;DHT22;31884;52.538;13.820;2023-08-21T03:52:07;19.80;99.90
44843;DHT22;31884;52.538;13.820;2023-08-21T03:54:32;19.70;99.90
44843;DHT22;31884;52.538;13.820;2023-08-21T03:56:58;19.80;99.90
44843;DHT22;31884;52.538;13.820;2023-08-21T03:59:23;19.80;99.90
44843;DHT22;31884;52.538;13.820;2023-08-21T04:01:55;19.80;99.90
44843;DHT22;31884;52.538;13.820;2023-08-21T04:04:21;19.80;99.90
44843;DHT22;31884;52.538;13.820;2023-08-21T04:06:46;19.70;99.90
44843;DHT22;31884;52.538;13.820;2023-08-21T04:09:12;19.80;99.90
44843;DHT22;31884;52.538;13.820;2023-08-21T04:11:37;19.80;99.90
44843;DHT22;31884;52.538;13.820;2023-08-21T04:14:03;19.80;99.90
44843;DHT22;31884;52.538;13.820;2023-08-21T04:16:29;19.80;99.90
44843;DHT22;31884;52.538;13.820;2023-08-21T04:18:56;19.80;99.90
44843;DHT22;31884;52.538;13.820;2023-08-21T04:21:22;19.80;99.90
44843;DHT22;31884;52.538;13.820;2023-08-21T04:23:47;19.80;99.90
44843;DHT22;31884;52.538;13.820;2023-08-21T04:26:13;19.80;99.90
44843;DHT22;31884;52.538;13.820;2023-08-21T04:28:38;19.90;99.90
44843;DHT22;31884;52.538;13.820;2023-08-21T04:31:07;19.90;99.90
44843;DHT22;31884;52.538;13.820;2023-08-21T04:33:32;19.90;99.90
44843;DHT22;31884;52.538;13.820;2023-08-21T04:35:58;19.90;99.90
44843;DHT22;31884;52.538;13.820;2023-08-21T04:38:24;19.90;99.90
44843;DHT22;31884;52.538;13.820;2023-08-21T04:40:50;19.90;99.90
44843;DHT22;31884;52.538;13.820;2023-08-21T04:43:16;20.00;99.90
44843;DHT22;31884;52.538;13.820;2023-08-21T04:45:51;20.10;99.90
44843;DHT22;31884;52.538;13.820;2023-08-21T04:48:20;20.10;99.90
44843;DHT22;31884;52.538;13.820;2023-08-21T04:50:46;20.20;99.90
44843;DHT22;31884;52.538;13.820;2023-08-21T04:53:12;20.30;99.90
44843;DHT22;31884;52.538;13.820;2023-08-21T04:55:39;20.40;99.90
44843;DHT22;31884;52.538;13.820;2023-08-21T04:58:06;20.60;99.90
44843;DHT22;31884;52.538;13.820;2023-08-21T05:00:31;20.70;99.90
44843;DHT22;31884;52.538;13.820;2023-08-21T05:02:57;20.90;99.90
44843;DHT22;31884;52.538;13.820;2023-08-21T05:05:23;21.00;99.90
44843;DHT22;31884;52.538;13.820;2023-08-21T05:07:48;21.20;99.90
44843;DHT22;31884;52.538;13.820;2023-08-21T05:10:14;21.30;99.90
44843;DHT22;31884;52.538;13.820;2023-08-21T05:12:39;21.50;99.90
44843;DHT22;31884;52.538;13.820;2023-08-21T05:15:05;22.00;99.90
44843;DHT22;31884;52.538;13.820;2023-08-21T05:17:30;22.70;99.90
44843;DHT22;31884;52.538;13.820;2023-08-21T05:19:56;23.50;99.90
44843;DHT22;31884;52.538;13.820;2023-08-21T05:22:21;24.30;99.90
44843;DHT22;31884;52.538;13.820;2023-08-21T05:24:47;25.10;99.90
44843;DHT22;31884;52.538;13.820;2023-08-21T05:27:12;25.80;99.30
44843;DHT22;31884;52.538;13.820;2023-08-21T05:29:38;26.70;97.20
44843;DHT22;31884;52.538;13.820;2023-08-21T05:32:04;27.50;93.60
44843;DHT22;31884;52.538;13.820;2023-08-21T05:34:30;28.30;91.60
44843;DHT22;31884;52.538;13.820;2023-08-21T05:36:55;28.90;89.80
44843;DHT22;31884;52.538;13.820;2023-08-21T05:39:21;29.70;86.30
44843;DHT22;31884;52.538;13.820;2023-08-21T05:41:46;30.30;82.40
44843;DHT22;31884;52.538;13.820;2023-08-21T05:44:12;30.80;79.60
44843;DHT22;31884;52.538;13.820;2023-08-21T05:46:38;31.40;78.50
44843;DHT22;31884;52.538;13.820;2023-08-21T05:49:03;31.80;75.60
44843;DHT22;31884;52.538;13.820;2023-08-21T05:51:29;32.20;73.10
44843;DHT22;31884;52.538;13.820;2023-08-21T05:53:54;32.70;70.70
44843;DHT22;31884;52.538;13.820;2023-08-21T05:56:20;33.10;68.50
44843;DHT22;31884;52.538;13.820;2023-08-21T05:58:45;33.20;67.90
44843;DHT22;31884;52.538;13.820;2023-08-21T06:01:11;33.50;65.50
44843;DHT22;31884;52.538;13.820;2023-08-21T06:03:37;33.70;63.70
44843;DHT22;31884;52.538;13.820;2023-08-21T06:06:02;34.20;61.60
44843;DHT22;31884;52.538;13.820;2023-08-21T06:08:28;34.70;58.50
44843;DHT22;31884;52.538;13.820;2023-08-21T06:10:53;35.10;56.10
44843;DHT22;31884;52.538;13.820;2023-08-21T06:13:19;35.50;53.50
44843;DHT22;31884;52.538;13.820;2023-08-21T06:15:44;36.00;51.90
44843;DHT22;31884;52.538;13.820;2023-08-21T06:18:10;36.40;49.60
44843;DHT22;31884;52.538;13.820;2023-08-21T06:20:36;36.50;46.90
44843;DHT22;31884;52.538;13.820;2023-08-21T06:23:01;36.00;46.00
44843;DHT22;31884;52.538;13.820;2023-08-21T06:25:27;35.90;44.90
44843;DHT22;31884;52.538;13.820;2023-08-21T06:27:52;35.60;43.40
44843;DHT22;31884;52.538;13.820;2023-08-21T06:30:18;35.20;43.10
44843;DHT22;31884;52.538;13.820;2023-08-21T06:32:44;34.60;42.80
44843;DHT22;31884;52.538;13.820;2023-08-21T06:35:10;34.80;42.10
44843;DHT22;31884;52.538;13.820;2023-08-21T06:37:35;34.90;41.30
44843;DHT22;31884;52.538;13.820;2023-08-21T06:40:00;34.80;40.80
44843;DHT22;31884;52.538;13.820;2023-08-21T06:42:27;34.50;39.80
44843;DHT22;31884;52.538;13.820;2023-08-21T06:44:52;34.70;39.20
44843;DHT22;31884;52.538;13.820;2023-08-21T06:47:18;35.50;37.20
44843;DHT22;31884;52.538;13.820;2023-08-21T06:49:43;36.40;35.60
44843;DHT22;31884;52.538;13.820;2023-08-21T06:52:09;37.10;33.40
44843;DHT22;31884;52.538;13.820;2023-08-21T06:54:34;37.40;31.50
44843;DHT22;31884;52.538;13.820;2023-08-21T06:56:59;37.30;31.40
44843;DHT22;31884;52.538;13.820;2023-08-21T06:59:25;36.50;31.80
44843;DHT22;31884;52.538;13.820;2023-08-21T07:01:50;35.70;32.10
44843;DHT22;31884;52.538;13.820;2023-08-21T07:04:16;35.40;28.50
44843;DHT22;31884;52.538;13.820;2023-08-21T07:06:42;36.00;31.10
44843;DHT22;31884;52.538;13.820;2023-08-21T07:09:07;36.80;29.90
44843;DHT22;31884;52.538;13.820;2023-08-21T07:11:33;37.70;28.60
44843;DHT22;31884;52.538;13.820;2023-08-21T07:13:58;38.60;27.60
44843;DHT22;31884;52.538;13.820;2023-08-21T07:16:24;39.10;26.00
44843;DHT22;31884;52.538;13.820;2023-08-21T07:18:51;39.30;24.90
44843;DHT22;31884;52.538;13.820;2023-08-21T07:21:17;38.40;23.90
44843;DHT22;31884;52.538;13.820;2023-08-21T07:23:42;37.30;23.90
44843;DHT22;31884;52.538;13.820;2023-08-21T07:26:08;36.60;24.70
44843;DHT22;31884;52.538;13.820;2023-08-21T07:28:33;36.70;24.40
44843;DHT22;31884;52.538;13.820;2023-08-21T07:30:59;37.30;23.90
44843;DHT22;31884;52.538;13.820;2023-08-21T07:33:25;37.90;23.20
44843;DHT22;31884;52.538;13.820;2023-08-21T07:36:04;38.60;22.70
44843;DHT22;31884;52.538;13.820;2023-08-21T07:38:30;39.20;19.20
44843;DHT22;31884;52.538;13.820;2023-08-21T07:41:03;39.60;21.30
44843;DHT22;31884;52.538;13.820;2023-08-21T07:43:30;39.90;18.30
44843;DHT22;31884;52.538;13.820;2023-08-21T07:45:55;40.30;19.90
44843;DHT22;31884;52.538;13.820;2023-08-21T07:48:20;40.00;19.70
44843;DHT22;31884;52.538;13.820;2023-08-21T07:50:53;39.30;19.90
44843;DHT22;31884;52.538;13.820;2023-08-21T07:53:18;38.90;18.80
44843;DHT22;31884;52.538;13.820;2023-08-21T07:55:44;38.80;20.00
44843;DHT22;31884;52.538;13.820;2023-08-21T07:58:11;38.90;19.90
44843;DHT22;31884;52.538;13.820;2023-08-21T08:00:38;39.30;19.60
44843;DHT22;31884;52.538;13.820;2023-08-21T08:03:04;39.30;19.20
44843;DHT22;31884;52.538;13.820;2023-08-21T08:05:31;39.00;19.30
44843;DHT22;31884;52.538;13.820;2023-08-21T08:07:56;38.60;19.40
44843;DHT22;31884;52.538;13.820;2023-08-21T08:10:23;38.20;19.50
44843;DHT22;31884;52.538;13.820;2023-08-21T08:12:48;37.80;19.50
44843;DHT22;31884;52.538;13.820;2023-08-21T08:15:14;37.40;19.80
44843;DHT22;31884;52.538;13.820;2023-08-21T08:17:39;36.90;20.20
44843;DHT22;31884;52.538;13.820;2023-08-21T08:20:05;36.50;20.50
44843;DHT22;31884;52.538;13.820;2023-08-21T08:22:31;36.00;20.90
44843;DHT22;31884;52.538;13.820;2023-08-21T08:24:57;35.50;21.30
44843;DHT22;31884;52.538;13.820;2023-08-21T08:27:22;35.20;21.70
44843;DHT22;31884;52.538;13.820;2023-08-21T08:29:49;34.70;21.90
44843;DHT22;31884;52.538;13.820;2023-08-21T08:32:14;34.30;22.20
44843;DHT22;31884;52.538;13.820;2023-08-21T08:34:40;34.10;22.60
44843;DHT22;31884;52.538;13.820;2023-08-21T08:37:05;34.00;22.90
44843;DHT22;31884;52.538;13.820;2023-08-21T08:39:31;33.70;23.10
44843;DHT22;31884;52.538;13.820;2023-08-21T08:42:01;33.60;23.40
44843;DHT22;31884;52.538;13.820;2023-08-21T08:44:29;33.40;23.60
44843;DHT22;31884;52.538;13.820;2023-08-21T08:46:55;33.20;23.80
44843;DHT22;31884;52.538;13.820;2023-08-21T08:49:22;33.00;23.90
44843;DHT22;31884;52.538;13.820;2023-08-21T08:51:50;32.80;24.20
44843;DHT22;31884;52.538;13.820;2023-08-21T08:54:17;32.10;24.80
44843;DHT22;31884;52.538;13.820;2023-08-21T08:56:43;31.90;24.90
44843;DHT22;31884;52.538;13.820;2023-08-21T08:59:09;31.80;25.10
44843;DHT22;31884;52.538;13.820;2023-08-21T09:01:34;31.70;25.30
44843;DHT22;31884;52.538;13.820;2023-08-21T09:04:00;31.80;25.60
44843;DHT22;31884;52.538;13.820;2023-08-21T09:06:26;31.80;25.60
44843;DHT22;31884;52.538;13.820;2023-08-21T09:08:56;31.90;25.50
44843;DHT22;31884;52.538;13.820;2023-08-21T09:11:23;31.70;25.50
44843;DHT22;31884;52.538;13.820;2023-08-21T09:13:49;31.70;25.60
44843;DHT22;31884;52.538;13.820;2023-08-21T09:16:19;31.80;25.80
44843;DHT22;31884;52.538;13.820;2023-08-21T09:18:53;31.90;26.00
44843;DHT22;31884;52.538;13.820;2023-08-21T09:21:20;31.90;26.00
44843;DHT22;31884;52.538;13.820;2023-08-21T09:23:45;31.90;26.00
44843;DHT22;31884;52.538;13.820;2023-08-21T09:26:18;31.90;25.90
44843;DHT22;31884;52.538;13.820;2023-08-21T09:28:45;31.90;26.00
44843;DHT22;31884;52.538;13.820;2023-08-21T09:31:11;32.00;26.10
44843;DHT22;31884;52.538;13.820;2023-08-21T09:33:37;31.90;26.30
44843;DHT22;31884;52.538;13.820;2023-08-21T09:36:03;31.90;26.70
44843;DHT22;31884;52.538;13.820;2023-08-21T09:38:30;31.90;26.80
44843;DHT22;31884;52.538;13.820;2023-08-21T09:40:56;31.20;26.90
44843;DHT22;31884;52.538;13.820;2023-08-21T09:43:24;31.30;27.10
44843;DHT22;31884;52.538;13.820;2023-08-21T09:45:51;31.40;26.60
44843;DHT22;31884;52.538;13.820;2023-08-21T09:48:24;31.50;26.30
44843;DHT22;31884;52.538;13.820;2023-08-21T09:50:52;31.70;25.80
44843;DHT22;31884;52.538;13.820;2023-08-21T09:53:18;31.90;25.40
44843;DHT22;31884;52.538;13.820;2023-08-21T09:55:44;31.90;24.00
44843;DHT22;31884;52.538;13.820;2023-08-21T09:58:11;31.70;24.70
44843;DHT22;31884;52.538;13.820;2023-08-21T10:00:37;31.70;24.40
44843;DHT22;31884;52.538;13.820;2023-08-21T10:03:12;31.40;24.40
44843;DHT22;31884;52.538;13.820;2023-08-21T10:05:39;31.60;23.80
44843;DHT22;31884;52.538;13.820;2023-08-21T10:08:06;31.50;24.70
44843;DHT22;31884;52.538;13.820;2023-08-21T10:10:37;31.20;23.30
44843;DHT22;31884;52.538;13.820;2023-08-21T10:13:03;30.90;23.60
44843;DHT22;31884;52.538;13.820;2023-08-21T10:15:30;31.00;24.10
44843;DHT22;31884;52.538;13.820;2023-08-21T10:17:56;31.20;23.00
44843;DHT22;31884;52.538;13.820;2023-08-21T10:20:24;31.40;22.60
44843;DHT22;31884;52.538;13.820;2023-08-21T10:22:52;31.50;22.20
44843;DHT22;31884;52.538;13.820;2023-08-21T10:25:20;31.50;21.70
44843;DHT22;31884;52.538;13.820;2023-08-21T10:27:50;31.20;21.70
44843;DHT22;31884;52.538;13.820;2023-08-21T10:30:20;30.90;21.70
44843;DHT22;31884;52.538;13.820;2023-08-21T10:32:47;30.80;22.00
44843;DHT22;31884;52.538;13.820;2023-08-21T10:35:19;30.60;22.00
44843;DHT22;31884;52.538;13.820;2023-08-21T10:38:07;30.60;20.70
44843;DHT22;31884;52.538;13.820;2023-08-21T10:40:34;30.50;20.60
44843;DHT22;31884;52.538;13.820;2023-08-21T10:43:00;30.50;21.30
44843;DHT22;31884;52.538;13.820;2023-08-21T10:45:25;30.50;21.50
44843;DHT22;31884;52.538;13.820;2023-08-21T10:47:51;30.40;20.40
44843;DHT22;31884;52.538;13.820;2023-08-21T10:50:16;30.50;20.20
44843;DHT22;31884;52.538;13.820;2023-08-21T10:52:43;30.50;19.90
44843;DHT22;31884;52.538;13.820;2023-08-21T10:55:14;30.60;19.90
44843;DHT22;31884;52.538;13.820;2023-08-21T10:57:40;30.40;19.30
44843;DHT22;31884;52.538;13.820;2023-08-21T11:02:36;30.50;19.20
44843;DHT22;31884;52.538;13.820;2023-08-21T11:05:02;30.60;18.90
44843;DHT22;31884;52.538;13.820;2023-08-21T11:07:40;30.70;18.50
44843;DHT22;31884;52.538;13.820;2023-08-21T11:10:12;30.70;16.80
44843;DHT22;31884;52.538;13.820;2023-08-21T11:12:47;30.70;17.20
44843;DHT22;31884;52.538;13.820;2023-08-21T11:15:15;30.80;17.40
44843;DHT22;31884;52.538;13.820;2023-08-21T11:17:41;30.80;17.40
44843;DHT22;31884;52.538;13.820;2023-08-21T11:20:07;30.60;17.50
44843;DHT22;31884;52.538;13.820;2023-08-21T11:22:33;30.60;17.50
44843;DHT22;31884;52.538;13.820;2023-08-21T11:24:59;30.40;17.80
44843;DHT22;31884;52.538;13.820;2023-08-21T11:27:24;30.40;17.80
44843;DHT22;31884;52.538;13.820;2023-08-21T11:29:51;30.30;17.90
44843;DHT22;31884;52.538;13.820;2023-08-21T11:32:18;30.10;17.80
44843;DHT22;31884;52.538;13.820;2023-08-21T11:35:02;29.90;18.00
44843;DHT22;31884;52.538;13.820;2023-08-21T11:37:28;29.80;17.80
44843;DHT22;31884;52.538;13.820;2023-08-21T11:39:55;29.80;18.40
44843;DHT22;31884;52.538;13.820;2023-08-21T11:42:30;29.80;18.50
44843;DHT22;31884;52.538;13.820;2023-08-21T11:44:56;29.80;18.10
44843;DHT22;31884;52.538;13.820;2023-08-21T11:47:23;29.90;18.00
44843;DHT22;31884;52.538;13.820;2023-08-21T11:49:49;30.00;18.00
44843;DHT22;31884;52.538;13.820;2023-08-21T11:52:23;30.00;17.90
44843;DHT22;31884;52.538;13.820;2023-08-21T11:54:53;30.20;17.70
44843;DHT22;31884;52.538;13.820;2023-08-21T11:57:20;30.20;17.90
44843;DHT22;31884;52.538;13.820;2023-08-21T11:59:53;30.40;18.10
44843;DHT22;31884;52.538;13.820;2023-08-21T12:05:01;30.60;18.50
44843;DHT22;31884;52.538;13.820;2023-08-21T12:07:27;30.60;18.60
44843;DHT22;31884;52.538;13.820;2023-08-21T12:09:53;30.50;18.60
44843;DHT22;31884;52.538;13.820;2023-08-21T12:12:18;30.30;19.10
44843;DHT22;31884;52.538;13.820;2023-08-21T12:14:44;30.20;19.20
44843;DHT22;31884;52.538;13.820;2023-08-21T12:17:09;30.00;18.90
44843;DHT22;31884;52.538;13.820;2023-08-21T12:19:35;30.00;17.40
44843;DHT22;31884;52.538;13.820;2023-08-21T12:22:00;30.00;17.50
44843;DHT22;31884;52.538;13.820;2023-08-21T12:24:26;30.00;17.60
44843;DHT22;31884;52.538;13.820;2023-08-21T12:26:51;30.00;17.90
44843;DHT22;31884;52.538;13.820;2023-08-21T12:29:17;30.10;18.20
44843;DHT22;31884;52.538;13.820;2023-08-21T12:31:43;30.20;18.50
44843;DHT22;31884;52.538;13.820;2023-08-21T12:34:08;30.30;18.30
44843;DHT22;31884;52.538;13.820;2023-08-21T12:36:35;30.30;18.30
44843;DHT22;31884;52.538;13.820;2023-08-21T12:39:02;30.30;18.20
44843;DHT22;31884;52.538;13.820;2023-08-21T12:41:28;30.20;18.00
44843;DHT22;31884;52.538;13.820;2023-08-21T12:43:53;30.00;18.00
44843;DHT22;31884;52.538;13.820;2023-08-21T12:46:19;30.00;17.90
44843;DHT22;31884;52.538;13.820;2023-08-21T12:48:44;29.90;17.90
44843;DHT22;31884;52.538;13.820;2023-08-21T12:51:10;29.80;17.90
44843;DHT22;31884;52.538;13.820;2023-08-21T12:53:35;29.80;18.00
44843;DHT22;31884;52.538;13.820;2023-08-21T12:56:01;29.70;18.00
44843;DHT22;31884;52.538;13.820;2023-08-21T12:58:26;29.80;17.90
44843;DHT22;31884;52.538;13.820;2023-08-21T13:00:52;29.80;17.90
44843;DHT22;31884;52.538;13.820;2023-08-21T13:03:18;29.70;18.00
44843;DHT22;31884;52.538;13.820;2023-08-21T13:05:43;29.70;17.90
44843;DHT22;31884;52.538;13.820;2023-08-21T13:08:09;29.70;17.80
44843;DHT22;31884;52.538;13.820;2023-08-21T13:10:34;29.60;17.80
44843;DHT22;31884;52.538;13.820;2023-08-21T13:13:00;29.60;17.90
44843;DHT22;31884;52.538;13.820;2023-08-21T13:15:25;29.60;18.00
44843;DHT22;31884;52.538;13.820;2023-08-21T13:17:51;29.40;18.30
44843;DHT22;31884;52.538;13.820;2023-08-21T13:20:17;29.30;18.50
44843;DHT22;31884;52.538;13.820;2023-08-21T13:22:50;29.30;18.70
44843;DHT22;31884;52.538;13.820;2023-08-21T13:25:18;29.30;19.20
44843;DHT22;31884;52.538;13.820;2023-08-21T13:27:44;29.20;19.40
44843;DHT22;31884;52.538;13.820;2023-08-21T13:30:10;29.20;19.40
44843;DHT22;31884;52.538;13.820;2023-08-21T13:32:36;29.20;19.20
44843;DHT22;31884;52.538;13.820;2023-08-21T13:35:01;29.20;19.30
44843;DHT22;31884;52.538;13.820;2023-08-21T13:37:30;29.10;19.30
44843;DHT22;31884;52.538;13.820;2023-08-21T13:39:55;29.10;19.50
44843;DHT22;31884;52.538;13.820;2023-08-21T13:42:24;29.10;19.70
44843;DHT22;31884;52.538;13.820;2023-08-21T13:44:50;29.00;20.00
44843;DHT22;31884;52.538;13.820;2023-08-21T13:47:16;28.90;19.90
44843;DHT22;31884;52.538;13.820;2023-08-21T13:49:41;28.70;19.80
44843;DHT22;31884;52.538;13.820;2023-08-21T13:52:07;28.70;19.80
44843;DHT22;31884;52.538;13.820;2023-08-21T13:54:32;28.80;19.80
44843;DHT22;31884;52.538;13.820;2023-08-21T13:56:58;28.80;19.90
44843;DHT22;31884;52.538;13.820;2023-08-21T13:59:25;28.80;19.90
44843;DHT22;31884;52.538;13.820;2023-08-21T14:01:50;28.80;19.70
44843;DHT22;31884;52.538;13.820;2023-08-21T14:04:16;28.90;19.50
44843;DHT22;31884;52.538;13.820;2023-08-21T14:06:41;29.00;19.90
44843;DHT22;31884;52.538;13.820;2023-08-21T14:09:07;29.00;19.40
44843;DHT22;31884;52.538;13.820;2023-08-21T14:11:32;28.80;19.50
44843;DHT22;31884;52.538;13.820;2023-08-21T14:13:58;28.70;19.70
44843;DHT22;31884;52.538;13.820;2023-08-21T14:16:23;28.60;20.40
44843;DHT22;31884;52.538;13.820;2023-08-21T14:18:49;28.50;20.10
44843;DHT22;31884;52.538;13.820;2023-08-21T14:21:14;28.30;20.20
44843;DHT22;31884;52.538;13.820;2023-08-21T14:23:40;28.20;20.00
44843;DHT22;31884;52.538;13.820;2023-08-21T14:26:05;28.20;20.70
44843;DHT22;31884;52.538;13.820;2023-08-21T14:28:30;28.20;21.00
44843;DHT22;31884;52.538;13.820;2023-08-21T14:30:56;28.20;21.70
44843;DHT22;31884;52.538;13.820;2023-08-21T14:33:22;28.20;21.30
44843;DHT22;31884;52.538;13.820;2023-08-21T14:35:47;28.20;21.50
44843;DHT22;31884;52.538;13.820;2023-08-21T14:38:14;28.20;21.50
44843;DHT22;31884;52.538;13.820;2023-08-21T14:40:39;28.10;21.00
44843;DHT22;31884;52.538;13.820;2023-08-21T14:43:05;27.90;21.00
44843;DHT22;31884;52.538;13.820;2023-08-21T14:45:30;27.80;21.20
44843;DHT22;31884;52.538;13.820;2023-08-21T14:47:55;27.70;21.70
44843;DHT22;31884;52.538;13.820;2023-08-21T14:50:21;27.70;21.40
44843;DHT22;31884;52.538;13.820;2023-08-21T14:52:46;27.70;21.40
44843;DHT22;31884;52.538;13.820;2023-08-21T14:55:13;27.80;21.20
44843;DHT22;31884;52.538;13.820;2023-08-21T14:57:38;27.70;21.30
44843;DHT22;31884;52.538;13.820;2023-08-21T15:00:04;27.60;21.20
44843;DHT22;31884;52.538;13.820;2023-08-21T15:02:30;27.60;21.30
44843;DHT22;31884;52.538;13.820;2023-08-21T15:04:56;27.60;21.50
44843;DHT22;31884;52.538;13.820;2023-08-21T15:07:21;27.50;21.80
44843;DHT22;31884;52.538;13.820;2023-08-21T15:09:47;27.50;22.10
44843;DHT22;31884;52.538;13.820;2023-08-21T15:12:12;27.50;22.30
44843;DHT22;31884;52.538;13.820;2023-08-21T15:14:38;27.60;22.50
44843;DHT22;31884;52.538;13.820;2023-08-21T15:17:03;27.60;22.60
44843;DHT22;31884;52.538;13.820;2023-08-21T15:19:29;27.60;22.70
44843;DHT22;31884;52.538;13.820;2023-08-21T15:21:54;27.40;22.80
44843;DHT22;31884;52.538;13.820;2023-08-21T15:24:20;27.40;22.70
44843;DHT22;31884;52.538;13.820;2023-08-21T15:26:45;27.30;22.70